createdAt,value
2022-10-07T00:02:55.770Z,15.52
2022-10-07T00:07:57.424Z,15.32
2022-10-07T00:13:00.050Z,14.95
2022-10-07T00:18:01.890Z,14.80
2022-10-07T00:23:03.512Z,13.77
2022-10-07T00:28:05.764Z,15.27
2022-10-07T00:33:07.497Z,13.82
2022-10-07T00:38:09.195Z,14.48
2022-10-07T00:43:30.967Z,14.20
2022-10-07T00:48:34.348Z,14.77
2022-10-07T00:53:39.755Z,14.70
2022-10-07T00:58:44.602Z,15.60
2022-10-07T01:03:48.698Z,15.13
2022-10-07T01:08:52.854Z,14.60
2022-10-07T01:14:16.210Z,14.50
2022-10-07T01:19:47.693Z,13.63
2022-10-07T01:24:59.854Z,14.00
2022-10-07T01:30:07.473Z,14.55
2022-10-07T01:35:15.625Z,14.88
2022-10-07T01:40:22.734Z,14.52
2022-10-07T01:45:26.513Z,14.63
2022-10-07T01:50:30.894Z,14.48
2022-10-07T01:55:48.758Z,14.68
2022-10-07T02:01:16.746Z,14.23
2022-10-07T02:06:31.065Z,14.13
2022-10-07T02:11:38.404Z,13.88
2022-10-07T02:17:01.954Z,14.30
2022-10-07T02:22:05.683Z,14.23
2022-10-07T02:27:11.972Z,15.67
2022-10-07T02:32:18.801Z,14.38
2022-10-07T02:37:26.756Z,14.02
2022-10-07T02:42:39.729Z,13.70
2022-10-07T02:47:48.848Z,13.07
2022-10-07T02:52:54.790Z,14.35
2022-10-07T02:58:01.421Z,14.25
2022-10-07T03:03:04.815Z,14.32
2022-10-07T03:08:09.296Z,15.30
2022-10-07T03:13:11.023Z,14.05
2022-10-07T03:18:12.708Z,14.63
2022-10-07T03:23:14.402Z,15.23
2022-10-07T03:28:16.209Z,15.85
2022-10-07T03:33:19.468Z,14.77
2022-10-07T03:38:21.316Z,14.75
2022-10-07T03:43:23.040Z,15.48
2022-10-07T03:48:25.113Z,14.80
2022-10-07T03:53:27.940Z,15.68
2022-10-07T03:58:29.744Z,13.95
2022-10-07T04:03:31.450Z,14.13
2022-10-07T04:08:33.959Z,13.50
2022-10-07T04:13:35.646Z,13.13
2022-10-07T04:18:37.567Z,12.73
2022-10-07T04:23:41.140Z,14.10
2022-10-07T04:28:43.259Z,14.48
2022-10-07T04:33:45.213Z,13.27
2022-10-07T04:38:49.980Z,13.57
2022-10-07T04:43:57.425Z,13.37
2022-10-07T04:48:59.731Z,14.32
2022-10-07T04:54:01.382Z,13.32
2022-10-07T04:59:03.267Z,14.90
2022-10-07T05:04:04.911Z,13.32
2022-10-07T05:09:06.579Z,14.15
2022-10-07T05:14:08.265Z,13.93
2022-10-07T05:19:09.909Z,13.73
2022-10-07T05:24:11.589Z,13.95
2022-10-07T05:29:13.343Z,13.73
2022-10-07T05:34:16.205Z,14.47
2022-10-07T05:39:17.937Z,13.82
2022-10-07T05:44:19.617Z,14.23
2022-10-07T05:49:21.474Z,12.35
2022-10-07T05:54:23.217Z,12.65
2022-10-07T05:59:24.909Z,12.20
2022-10-07T06:04:27.004Z,12.30
2022-10-07T06:09:28.674Z,11.18
2022-10-07T06:14:30.469Z,11.60
2022-10-07T06:19:32.118Z,11.90
2022-10-07T06:24:33.867Z,10.68
2022-10-07T06:29:35.591Z,11.05
2022-10-07T06:34:37.266Z,10.23
2022-10-07T06:39:38.980Z,11.68
2022-10-07T06:44:40.681Z,9.68
2022-10-07T06:49:42.330Z,9.45
2022-10-07T06:54:44.067Z,9.27
2022-10-07T06:59:45.745Z,9.80
2022-10-07T07:04:47.465Z,8.67
2022-10-07T07:09:49.232Z,8.93
2022-10-07T07:14:51.676Z,7.90
2022-10-07T07:19:53.447Z,8.98
2022-10-07T07:24:55.109Z,7.88
2022-10-07T07:29:56.803Z,8.80
2022-10-07T07:34:58.658Z,8.30
2022-10-07T07:40:00.352Z,7.75
2022-10-07T07:45:02.092Z,9.00
2022-10-07T07:50:05.716Z,9.13
2022-10-07T07:55:07.781Z,8.63
2022-10-07T08:00:10.189Z,9.82
2022-10-07T08:05:11.907Z,10.17
2022-10-07T08:10:13.625Z,9.63
2022-10-07T08:15:15.283Z,10.57
2022-10-07T08:20:17.159Z,11.65
2022-10-07T08:25:18.905Z,10.87
2022-10-07T08:30:20.982Z,10.77
2022-10-07T08:35:22.669Z,11.00
2022-10-07T08:40:24.392Z,11.23
2022-10-07T08:45:30.772Z,11.50
2022-10-07T08:50:46.707Z,11.18
2022-10-07T08:56:01.332Z,12.35
2022-10-07T09:01:28.744Z,11.50
2022-10-07T09:06:38.626Z,11.13
2022-10-07T09:11:43.378Z,12.02
2022-10-07T09:16:47.335Z,11.38
2022-10-07T09:21:50.435Z,11.68
2022-10-07T09:26:54.364Z,12.23
2022-10-07T09:31:57.501Z,13.27
2022-10-07T09:37:21.601Z,11.80
2022-10-07T09:42:35.016Z,12.52
2022-10-07T09:47:37.916Z,11.88
2022-10-07T09:52:39.610Z,13.13
2022-10-07T09:57:41.276Z,12.37
2022-10-07T10:02:49.758Z,12.95
2022-10-07T10:08:02.084Z,13.05
2022-10-07T10:13:05.799Z,13.00
2022-10-07T10:18:37.026Z,11.77
2022-10-07T10:23:41.795Z,13.30
2022-10-07T10:29:24.715Z,14.00
2022-10-07T10:34:34.955Z,13.95
2022-10-07T10:39:36.608Z,13.63
2022-10-07T10:44:38.232Z,12.90
2022-10-07T10:49:45.905Z,11.85
2022-10-07T10:55:05.547Z,12.93
2022-10-07T11:00:10.035Z,13.38
2022-10-07T11:05:23.298Z,12.10
2022-10-07T11:10:41.438Z,11.60
2022-10-07T11:15:59.588Z,12.18
2022-10-07T11:21:03.908Z,10.97
2022-10-07T11:26:18.738Z,11.80
2022-10-07T11:31:27.746Z,11.57
2022-10-07T11:37:09.724Z,12.00
2022-10-07T11:42:25.490Z,10.53
2022-10-07T11:47:41.683Z,10.87
2022-10-07T11:52:47.245Z,10.53
2022-10-07T11:58:01.884Z,10.47
2022-10-07T12:03:32.966Z,11.02
2022-10-07T12:08:38.653Z,11.18
2022-10-07T12:13:43.197Z,12.23
2022-10-07T12:19:04.816Z,11.63
2022-10-07T12:24:15.106Z,9.80
2022-10-07T12:29:23.653Z,10.13
2022-10-07T12:34:35.510Z,10.50
2022-10-07T12:39:38.275Z,9.80
2022-10-07T12:44:46.501Z,10.77
2022-10-07T12:50:17.107Z,10.50
2022-10-07T12:55:35.761Z,10.55
2022-10-07T13:00:40.919Z,9.48
2022-10-07T13:05:58.015Z,9.95
2022-10-07T13:11:23.894Z,10.48
2022-10-07T13:16:50.476Z,10.43
2022-10-07T13:22:15.276Z,10.13
2022-10-07T13:27:20.257Z,9.65
2022-10-07T13:32:27.269Z,10.25
2022-10-07T13:37:32.015Z,10.02
2022-10-07T13:42:34.448Z,9.95
2022-10-07T13:47:36.157Z,9.40
2022-10-07T13:52:43.443Z,10.27
2022-10-07T13:57:45.510Z,9.80
2022-10-07T14:02:47.617Z,9.32
2022-10-07T14:07:54.664Z,8.77
2022-10-07T14:13:05.136Z,8.60
2022-10-07T14:18:10.043Z,7.78
2022-10-07T14:23:38.126Z,9.27
2022-10-07T14:28:41.629Z,8.85
2022-10-07T14:34:16.809Z,9.27
2022-10-07T14:39:23.993Z,9.40
2022-10-07T14:44:25.916Z,8.70
2022-10-07T14:49:27.599Z,9.33
2022-10-07T14:54:30.069Z,9.43
2022-10-07T14:59:31.807Z,9.25
2022-10-07T15:04:33.619Z,8.83
2022-10-07T15:09:35.392Z,8.93
2022-10-07T15:14:37.292Z,8.48
2022-10-07T15:19:39.235Z,9.45
2022-10-07T15:24:40.894Z,9.05
2022-10-07T15:29:42.541Z,8.80
2022-10-07T15:34:44.252Z,7.28
2022-10-07T15:39:45.917Z,8.02
2022-10-07T15:44:51.219Z,7.85
2022-10-07T15:49:52.946Z,8.32
2022-10-07T15:54:54.618Z,8.20
2022-10-07T15:59:56.310Z,8.97
2022-10-07T16:04:57.946Z,9.00
2022-10-07T16:09:59.632Z,8.80
2022-10-07T16:15:01.326Z,8.90
2022-10-07T16:20:06.552Z,8.17
2022-10-07T16:25:10.710Z,8.85
2022-10-07T16:30:12.727Z,9.48
2022-10-07T16:35:14.591Z,8.05
2022-10-07T16:40:16.288Z,9.30
2022-10-07T16:45:18.011Z,9.63
2022-10-07T16:50:19.670Z,9.23
2022-10-07T16:55:21.331Z,8.88
2022-10-07T17:00:23.205Z,10.48
2022-10-07T17:05:24.948Z,9.68
2022-10-07T17:10:26.623Z,11.13
2022-10-07T17:15:28.250Z,10.35
2022-10-07T17:20:30.672Z,10.18
2022-10-07T17:25:32.492Z,9.37
2022-10-07T17:30:34.195Z,9.83
2022-10-07T17:35:35.960Z,10.15
2022-10-07T17:40:37.979Z,10.13
2022-10-07T17:45:39.656Z,10.10
2022-10-07T17:50:41.324Z,9.85
2022-10-07T17:55:50.979Z,9.32
2022-10-07T18:00:52.741Z,10.00
2022-10-07T18:05:54.473Z,11.13
2022-10-07T18:10:56.532Z,12.93
2022-10-07T18:16:02.038Z,14.45
2022-10-07T18:21:04.988Z,14.77
2022-10-07T18:26:11.215Z,12.77
2022-10-07T18:31:16.978Z,11.50
2022-10-07T18:36:18.743Z,11.43
2022-10-07T18:41:20.773Z,11.70
2022-10-07T18:46:22.778Z,11.97
2022-10-07T18:51:24.731Z,12.65
2022-10-07T18:56:26.413Z,14.85
2022-10-07T19:01:28.731Z,13.70
2022-10-07T19:06:34.148Z,16.00
2022-10-07T19:11:35.845Z,15.97
2022-10-07T19:16:40.047Z,14.43
2022-10-07T19:21:41.979Z,13.55
2022-10-07T19:26:47.533Z,11.65
2022-10-07T19:31:49.549Z,11.83
2022-10-07T19:36:51.299Z,11.23
2022-10-07T19:41:52.987Z,10.27
2022-10-07T19:46:54.675Z,10.33
2022-10-07T19:51:56.341Z,11.23
2022-10-07T19:56:58.011Z,11.50
2022-10-07T20:02:01.263Z,11.63
2022-10-07T20:07:03.145Z,10.87
2022-10-07T20:12:04.908Z,10.10
2022-10-07T20:17:06.588Z,9.95
2022-10-07T20:22:08.291Z,12.55
2022-10-07T20:27:09.948Z,12.27
2022-10-07T20:32:11.728Z,11.75
2022-10-07T20:37:13.409Z,11.88
2022-10-07T20:42:15.198Z,13.47
2022-10-07T20:47:17.876Z,11.13
2022-10-07T20:52:22.187Z,12.68
2022-10-07T20:57:27.218Z,12.23
2022-10-07T21:02:28.976Z,10.55
2022-10-07T21:07:30.724Z,11.75
2022-10-07T21:12:32.608Z,11.50
2022-10-07T21:17:34.648Z,12.33
2022-10-07T21:22:36.347Z,11.15
2022-10-07T21:27:38.013Z,10.75
2022-10-07T21:32:39.780Z,11.50
2022-10-07T21:37:41.500Z,11.57
2022-10-07T21:42:43.174Z,13.17
2022-10-07T21:47:44.869Z,11.82
2022-10-07T21:52:46.913Z,11.27
2022-10-07T21:57:48.698Z,12.57
2022-10-07T22:02:51.113Z,12.10
2022-10-07T22:07:52.845Z,12.65
2022-10-07T22:12:54.520Z,11.90
2022-10-07T22:17:56.221Z,11.25
2022-10-07T22:22:59.987Z,11.80
2022-10-07T22:28:01.907Z,12.02
2022-10-07T22:33:03.698Z,11.20
2022-10-07T22:38:05.352Z,12.65
2022-10-07T22:43:07.164Z,12.10
2022-10-07T22:48:09.187Z,12.73
2022-10-07T22:53:11.063Z,11.18
2022-10-07T22:58:12.872Z,11.55
2022-10-07T23:03:14.622Z,10.55
2022-10-07T23:08:16.448Z,11.63
2022-10-07T23:13:18.106Z,11.27
2022-10-07T23:18:19.784Z,11.15
2022-10-07T23:23:21.439Z,11.30
2022-10-07T23:28:23.639Z,11.93
2022-10-07T23:33:25.405Z,11.75
2022-10-07T23:38:28.072Z,12.35
2022-10-07T23:43:29.784Z,10.98
2022-10-07T23:48:31.964Z,11.20
2022-10-07T23:53:34.807Z,11.63
2022-10-07T23:58:36.993Z,10.82
